createdAt,value
2019-03-05T00:01:16.499Z,80.73
2019-03-05T00:03:48.193Z,80.93
2019-03-05T00:06:19.494Z,79.77
2019-03-05T00:08:50.348Z,79.52
2019-03-05T00:11:21.469Z,80.83
2019-03-05T00:13:52.255Z,80.13
2019-03-05T00:16:23.168Z,79.84
2019-03-05T00:18:53.949Z,78.76
2019-03-05T00:21:25.013Z,79.95
2019-03-05T00:24:15.274Z,79.71
2019-03-05T00:26:46.761Z,79.25
2019-03-05T00:29:39.010Z,79.46
2019-03-05T00:32:10.084Z,79.08
2019-03-05T00:35:17.784Z,78.37
2019-03-05T00:38:09.173Z,77.58
2019-03-05T00:41:03.497Z,76.84
2019-03-05T00:44:17.656Z,76.88
2019-03-05T00:47:24.827Z,76.05
2019-03-05T00:50:31.819Z,76.35
2019-03-05T00:53:12.173Z,75.98
2019-03-05T00:56:04.720Z,77.03
2019-03-05T00:58:40.527Z,76.77
2019-03-05T01:01:41.404Z,77.94
2019-03-05T01:04:40.729Z,77.68
2019-03-05T01:07:11.947Z,78.36
2019-03-05T01:09:43.146Z,78.42
2019-03-05T01:12:14.700Z,79.85
2019-03-05T01:14:45.972Z,79.89
2019-03-05T01:17:16.718Z,79.66
2019-03-05T01:19:47.553Z,79.63
2019-03-05T01:22:18.388Z,79.57
2019-03-05T01:24:49.268Z,79.00
2019-03-05T01:27:20.137Z,79.67
2019-03-05T01:29:50.949Z,79.82
2019-03-05T01:32:41.096Z,79.31
2019-03-05T01:35:31.151Z,78.69
2019-03-05T01:38:02.179Z,78.76
2019-03-05T01:40:39.423Z,79.46
2019-03-05T01:43:10.509Z,79.29
2019-03-05T01:45:41.654Z,79.84
2019-03-05T01:48:12.629Z,80.20
2019-03-05T01:50:43.696Z,78.98
2019-03-05T01:53:14.671Z,78.12
2019-03-05T01:55:45.501Z,78.70
2019-03-05T01:58:17.344Z,78.36
2019-03-05T02:00:48.398Z,78.16
2019-03-05T02:03:20.280Z,76.44
2019-03-05T02:05:51.298Z,75.37
2019-03-05T02:08:22.116Z,75.56
2019-03-05T02:10:52.960Z,76.31
2019-03-05T02:13:23.789Z,77.26
2019-03-05T02:15:54.619Z,77.95
2019-03-05T02:18:27.096Z,77.66
2019-03-05T02:20:59.369Z,78.88
2019-03-05T02:23:57.666Z,78.13
2019-03-05T02:27:12.112Z,78.27
2019-03-05T02:29:49.907Z,78.28
2019-03-05T02:32:58.225Z,78.03
2019-03-05T02:35:41.780Z,78.47
2019-03-05T02:38:38.958Z,78.02
2019-03-05T02:41:36.820Z,77.95
2019-03-05T02:44:40.314Z,78.70
2019-03-05T02:48:05.001Z,78.12
2019-03-05T02:50:53.913Z,77.13
2019-03-05T02:53:49.275Z,76.95
2019-03-05T02:56:43.432Z,76.18
2019-03-05T02:59:13.864Z,76.32
2019-03-05T03:02:06.590Z,76.33
2019-03-05T03:04:41.169Z,75.81
2019-03-05T03:07:12.003Z,76.60
2019-03-05T03:10:27.412Z,76.49
2019-03-05T03:12:58.758Z,76.90
2019-03-05T03:15:31.213Z,76.58
2019-03-05T03:18:02.725Z,76.50
2019-03-05T03:20:33.677Z,76.88
2019-03-05T03:23:04.500Z,77.31
2019-03-05T03:25:35.547Z,76.47
2019-03-05T03:28:07.003Z,76.92
2019-03-05T03:30:37.815Z,76.62
2019-03-05T03:33:08.810Z,76.69
2019-03-05T03:35:39.884Z,76.99
2019-03-05T03:38:11.637Z,76.25
2019-03-05T03:40:42.677Z,77.00
2019-03-05T03:43:14.034Z,77.29
2019-03-05T03:45:45.096Z,77.37
2019-03-05T03:48:16.368Z,77.06
2019-03-05T03:50:47.359Z,77.21
2019-03-05T03:53:18.100Z,77.27
2019-03-05T03:55:49.616Z,76.95
2019-03-05T03:58:20.906Z,77.56
2019-03-05T04:00:51.667Z,76.63
2019-03-05T04:03:22.487Z,77.30
2019-03-05T04:05:53.401Z,78.65
2019-03-05T04:08:24.214Z,79.08
2019-03-05T04:10:54.962Z,79.82
2019-03-05T04:13:26.148Z,79.05
2019-03-05T04:15:57.128Z,79.24
2019-03-05T04:18:27.868Z,79.40
2019-03-05T04:20:59.084Z,79.35
2019-03-05T04:23:29.821Z,79.51
2019-03-05T04:26:00.888Z,78.99
2019-03-05T04:28:31.631Z,80.03
2019-03-05T04:31:02.768Z,79.91
2019-03-05T04:33:33.511Z,80.13
2019-03-05T04:36:04.350Z,79.66
2019-03-05T04:38:35.430Z,79.94
2019-03-05T04:41:06.180Z,80.27
2019-03-05T04:43:37.155Z,80.95
2019-03-05T04:46:25.540Z,81.56
2019-03-05T04:49:14.677Z,81.72
2019-03-05T04:51:50.115Z,82.10
2019-03-05T04:54:21.174Z,82.34
2019-03-05T04:56:51.933Z,82.33
2019-03-05T04:59:22.673Z,82.77
2019-03-05T05:01:53.430Z,83.00
2019-03-05T05:04:24.408Z,83.03
2019-03-05T05:06:55.497Z,82.89
2019-03-05T05:09:26.369Z,82.94
2019-03-05T05:11:57.344Z,82.37
2019-03-05T05:14:28.157Z,82.12
2019-03-05T05:16:59.145Z,82.03
2019-03-05T05:19:30.121Z,82.85
2019-03-05T05:22:00.892Z,82.16
2019-03-05T05:24:31.623Z,81.87
2019-03-05T05:27:02.638Z,82.19
2019-03-05T05:29:33.561Z,82.71
2019-03-05T05:32:04.397Z,83.20
2019-03-05T05:34:35.377Z,83.30
2019-03-05T05:37:06.170Z,83.30
2019-03-05T05:40:12.743Z,82.29
2019-03-05T05:42:43.493Z,82.96
2019-03-05T05:45:16.206Z,81.85
2019-03-05T05:47:47.302Z,81.80
2019-03-05T05:50:18.634Z,81.57
2019-03-05T05:52:49.725Z,80.46
2019-03-05T05:55:20.925Z,80.69
2019-03-05T05:57:51.681Z,80.01
2019-03-05T06:00:23.069Z,81.19
2019-03-05T06:02:53.893Z,79.41
2019-03-05T06:05:24.705Z,79.06
2019-03-05T06:07:55.791Z,78.07
2019-03-05T06:10:27.028Z,77.09
2019-03-05T06:12:57.890Z,76.80
2019-03-05T06:15:28.708Z,76.63
2019-03-05T06:17:59.792Z,76.99
2019-03-05T06:20:30.842Z,77.21
2019-03-05T06:23:01.667Z,79.02
2019-03-05T06:25:32.472Z,79.97
2019-03-05T06:28:03.298Z,80.56
2019-03-05T06:30:34.661Z,79.18
2019-03-05T06:33:05.484Z,79.15
2019-03-05T06:35:37.044Z,78.73
2019-03-05T06:38:08.118Z,78.42
2019-03-05T06:40:38.892Z,78.20
2019-03-05T06:43:09.937Z,78.27
2019-03-05T06:45:41.065Z,77.51
2019-03-05T06:48:11.857Z,78.86
2019-03-05T06:50:42.630Z,80.17
2019-03-05T06:53:13.632Z,82.89
2019-03-05T06:55:44.435Z,85.92
2019-03-05T06:58:15.193Z,84.27
2019-03-05T07:00:46.004Z,85.01
2019-03-05T07:03:17.044Z,83.69
2019-03-05T07:06:23.665Z,84.05
2019-03-05T07:09:06.013Z,81.95
2019-03-05T07:12:00.480Z,81.97
2019-03-05T07:14:56.684Z,79.61
2019-03-05T07:17:39.846Z,79.28
2019-03-05T07:21:16.343Z,77.81
2019-03-05T07:24:10.654Z,79.19
2019-03-05T07:26:41.471Z,78.72
2019-03-05T07:29:12.378Z,76.83
2019-03-05T07:31:43.181Z,76.42
2019-03-05T07:34:26.001Z,75.87
2019-03-05T07:36:57.439Z,75.03
2019-03-05T07:39:28.257Z,74.58
2019-03-05T07:41:59.348Z,76.05
2019-03-05T07:44:30.797Z,75.05
2019-03-05T07:47:01.942Z,75.24
2019-03-05T07:49:43.353Z,74.97
2019-03-05T07:52:05.484Z,74.06
2019-03-05T07:54:36.462Z,73.82
2019-03-05T07:57:07.574Z,73.56
2019-03-05T07:59:38.398Z,73.66
2019-03-05T08:02:09.472Z,73.87
2019-03-05T08:04:40.639Z,73.75
2019-03-05T08:07:11.558Z,74.02
2019-03-05T08:09:42.429Z,73.25
2019-03-05T08:12:53.627Z,73.00
2019-03-05T08:16:24.396Z,71.21
2019-03-05T08:18:55.506Z,71.45
2019-03-05T08:21:26.546Z,71.12
2019-03-05T08:23:57.372Z,70.46
2019-03-05T08:26:28.358Z,71.32
2019-03-05T08:28:59.407Z,71.82
2019-03-05T08:31:30.161Z,71.05
2019-03-05T08:34:01.883Z,71.85
2019-03-05T08:36:32.922Z,71.21
2019-03-05T08:39:06.019Z,70.72
2019-03-05T08:41:37.257Z,71.02
2019-03-05T08:44:08.112Z,71.51
2019-03-05T08:46:39.157Z,69.97
2019-03-05T08:49:10.321Z,69.51
2019-03-05T08:51:41.304Z,71.23
2019-03-05T08:54:12.308Z,71.08
2019-03-05T08:56:43.557Z,70.53
2019-03-05T08:59:14.857Z,70.70
2019-03-05T09:01:46.131Z,70.96
2019-03-05T09:04:17.154Z,70.88
2019-03-05T09:06:48.208Z,70.35
2019-03-05T09:09:19.575Z,70.96
2019-03-05T09:11:50.415Z,70.83
2019-03-05T09:14:21.530Z,71.42
2019-03-05T09:16:52.329Z,70.92
2019-03-05T09:19:23.543Z,71.22
2019-03-05T09:21:54.948Z,70.62
2019-03-05T09:24:25.779Z,71.43
2019-03-05T09:26:56.601Z,72.35
2019-03-05T09:29:28.024Z,72.48
2019-03-05T09:31:58.840Z,73.68
2019-03-05T09:34:29.846Z,73.49
2019-03-05T09:37:00.809Z,76.40
2019-03-05T09:39:31.721Z,77.16
2019-03-05T09:42:02.793Z,78.87
2019-03-05T09:44:34.043Z,81.32
2019-03-05T09:47:05.053Z,82.01
2019-03-05T09:49:35.873Z,82.99
2019-03-05T09:52:06.873Z,83.42
2019-03-05T09:54:37.694Z,82.06
2019-03-05T09:57:08.721Z,82.40
2019-03-05T09:59:39.778Z,82.94
2019-03-05T10:02:11.176Z,82.88
2019-03-05T10:04:45.084Z,82.18
2019-03-05T10:07:19.308Z,82.86
2019-03-05T10:09:49.799Z,81.33
2019-03-05T10:12:21.125Z,82.63
2019-03-05T10:14:51.889Z,82.33
2019-03-05T10:17:22.876Z,82.02
2019-03-05T10:19:54.063Z,81.40
2019-03-05T10:22:25.489Z,81.13
2019-03-05T10:25:05.673Z,82.97
2019-03-05T10:27:29.581Z,83.65
2019-03-05T10:30:00.616Z,85.45
2019-03-05T10:32:32.046Z,85.33
2019-03-05T10:35:03.215Z,86.86
2019-03-05T10:37:34.344Z,86.61
2019-03-05T10:40:05.581Z,86.09
2019-03-05T10:42:36.866Z,86.88
2019-03-05T10:45:09.272Z,86.40
2019-03-05T10:47:40.160Z,86.45
2019-03-05T10:50:15.599Z,86.46
2019-03-05T10:52:47.521Z,86.12
2019-03-05T10:55:26.210Z,87.09
2019-03-05T10:57:51.575Z,87.21
2019-03-05T11:00:27.135Z,88.00
2019-03-05T11:02:59.154Z,87.17
2019-03-05T11:05:32.356Z,85.24
2019-03-05T11:08:03.271Z,85.14
2019-03-05T11:10:34.311Z,85.08
2019-03-05T11:13:05.705Z,84.65
2019-03-05T11:15:37.887Z,84.77
2019-03-05T11:18:09.346Z,84.36
2019-03-05T11:20:40.442Z,84.65
2019-03-05T11:23:11.763Z,82.97
2019-03-05T11:25:43.139Z,83.62
2019-03-05T11:28:14.214Z,83.59
2019-03-05T11:30:45.375Z,82.45
2019-03-05T11:33:16.258Z,83.59
2019-03-05T11:35:47.129Z,83.78
2019-03-05T11:38:18.506Z,84.43
2019-03-05T11:40:49.339Z,84.65
2019-03-05T11:43:20.164Z,85.47
2019-03-05T11:45:51.175Z,85.77
2019-03-05T11:48:22.149Z,86.62
2019-03-05T11:50:53.045Z,86.65
2019-03-05T11:53:24.340Z,87.39
2019-03-05T11:55:55.335Z,87.22
2019-03-05T11:58:27.290Z,88.28
2019-03-05T12:01:13.865Z,87.78
2019-03-05T12:03:45.094Z,87.77
2019-03-05T12:06:16.381Z,87.59
2019-03-05T12:08:47.619Z,86.92
2019-03-05T12:11:18.517Z,87.27
2019-03-05T12:13:49.487Z,85.79
2019-03-05T12:16:20.786Z,85.53
2019-03-05T12:18:51.632Z,86.29
2019-03-05T12:21:22.632Z,86.67
2019-03-05T12:23:53.665Z,87.48
2019-03-05T12:26:24.645Z,87.16
2019-03-05T12:28:56.025Z,87.32
2019-03-05T12:31:28.284Z,87.06
2019-03-05T12:33:59.027Z,85.38
2019-03-05T12:36:30.007Z,85.22
2019-03-05T12:39:01.026Z,85.56
2019-03-05T12:41:33.996Z,85.97
2019-03-05T12:44:05.466Z,85.99
2019-03-05T12:46:36.866Z,85.30
2019-03-05T12:49:07.715Z,85.63
2019-03-05T12:51:38.704Z,85.48
2019-03-05T12:54:09.493Z,86.10
2019-03-05T12:56:40.557Z,85.38
2019-03-05T12:59:11.974Z,85.28
2019-03-05T13:01:43.011Z,84.31
2019-03-05T13:04:14.062Z,84.75
2019-03-05T13:06:45.122Z,85.17
2019-03-05T13:09:19.585Z,84.68
2019-03-05T13:11:50.972Z,85.24
2019-03-05T13:14:22.131Z,86.10
2019-03-05T13:16:53.204Z,85.54
2019-03-05T13:19:24.449Z,84.89
2019-03-05T13:21:55.491Z,85.10
2019-03-05T13:24:27.585Z,85.47
2019-03-05T13:26:58.577Z,84.79
2019-03-05T13:29:29.571Z,85.10
2019-03-05T13:32:00.536Z,84.77
2019-03-05T13:34:31.618Z,84.37
2019-03-05T13:37:02.356Z,84.25
2019-03-05T13:39:33.455Z,84.87
2019-03-05T13:42:04.484Z,84.72
2019-03-05T13:44:36.164Z,84.81
2019-03-05T13:47:08.696Z,84.57
2019-03-05T13:50:21.053Z,83.97
2019-03-05T13:53:23.963Z,84.04
2019-03-05T13:56:21.619Z,83.27
2019-03-05T13:59:31.255Z,83.88
2019-03-05T14:02:02.335Z,83.38
2019-03-05T14:04:44.300Z,83.47
2019-03-05T14:07:38.138Z,84.04
2019-03-05T14:10:09.020Z,83.84
2019-03-05T14:12:40.196Z,84.10
2019-03-05T14:15:11.405Z,83.51
2019-03-05T14:17:44.255Z,83.42
2019-03-05T14:20:16.145Z,83.49
2019-03-05T14:22:47.530Z,82.51
2019-03-05T14:25:18.786Z,82.93
2019-03-05T14:27:50.280Z,81.45
2019-03-05T14:30:21.900Z,80.96
2019-03-05T14:32:53.439Z,79.09
2019-03-05T14:35:27.601Z,78.94
2019-03-05T14:37:58.727Z,78.25
2019-03-05T14:40:30.947Z,78.23
2019-03-05T14:43:03.285Z,77.58
2019-03-05T14:45:36.236Z,76.76
2019-03-05T14:48:07.915Z,77.02
2019-03-05T14:50:38.975Z,77.51
2019-03-05T14:53:11.906Z,76.57
2019-03-05T14:55:43.143Z,76.78
2019-03-05T14:58:14.039Z,77.17
2019-03-05T15:00:45.143Z,75.41
2019-03-05T15:03:16.059Z,76.21
2019-03-05T15:05:46.831Z,74.59
2019-03-05T15:08:18.305Z,74.70
2019-03-05T15:10:49.629Z,75.36
2019-03-05T15:13:20.602Z,74.63
2019-03-05T15:15:51.371Z,75.76
2019-03-05T15:18:22.450Z,76.20
2019-03-05T15:20:53.512Z,77.56
2019-03-05T15:23:25.089Z,77.37
2019-03-05T15:25:56.426Z,76.79
2019-03-05T15:28:27.464Z,75.92
2019-03-05T15:30:58.488Z,73.78
2019-03-05T15:33:29.541Z,75.58
2019-03-05T15:36:00.690Z,77.35
2019-03-05T15:38:31.733Z,78.42
2019-03-05T15:41:02.850Z,78.18
2019-03-05T15:43:33.979Z,79.06
2019-03-05T15:46:05.668Z,77.64
2019-03-05T15:48:36.785Z,77.88
2019-03-05T15:51:07.636Z,77.65
2019-03-05T15:53:39.112Z,77.48
2019-03-05T15:56:10.140Z,78.70
2019-03-05T15:58:41.867Z,78.19
2019-03-05T16:01:21.876Z,79.08
2019-03-05T16:03:45.756Z,78.55
2019-03-05T16:06:16.961Z,77.34
2019-03-05T16:08:48.544Z,78.69
2019-03-05T16:11:19.586Z,78.32
2019-03-05T16:13:52.202Z,79.21
2019-03-05T16:16:24.230Z,79.10
2019-03-05T16:18:55.240Z,79.56
2019-03-05T16:21:26.311Z,79.62
2019-03-05T16:24:01.629Z,79.96
2019-03-05T16:26:31.292Z,79.74
2019-03-05T16:29:02.028Z,79.93
2019-03-05T16:31:52.273Z,80.18
2019-03-05T16:34:51.284Z,80.67
2019-03-05T16:37:42.629Z,81.27
2019-03-05T16:40:31.380Z,81.20
2019-03-05T16:43:12.656Z,81.71
2019-03-05T16:46:17.903Z,81.73
2019-03-05T16:48:56.177Z,81.72
2019-03-05T16:51:32.393Z,82.62
2019-03-05T16:54:27.302Z,82.79
2019-03-05T16:57:12.613Z,82.85
2019-03-05T16:59:53.192Z,83.34
2019-03-05T17:02:49.721Z,83.64
2019-03-05T17:05:44.529Z,83.87
2019-03-05T17:08:43.469Z,84.59
2019-03-05T17:11:36.592Z,84.41
2019-03-05T17:14:08.022Z,84.92
2019-03-05T17:16:38.890Z,85.70
2019-03-05T17:19:09.660Z,86.48
2019-03-05T17:21:40.902Z,86.76
2019-03-05T17:24:12.283Z,87.49
2019-03-05T17:26:43.139Z,87.81
2019-03-05T17:29:14.651Z,88.31
2019-03-05T17:31:45.926Z,88.65
2019-03-05T17:34:17.349Z,88.67
2019-03-05T17:36:48.794Z,88.69
2019-03-05T17:39:21.238Z,88.79
2019-03-05T17:41:52.447Z,89.14
2019-03-05T17:44:23.407Z,88.98
2019-03-05T17:46:55.005Z,89.24
2019-03-05T17:49:26.425Z,89.01
2019-03-05T17:51:57.411Z,89.02
2019-03-05T17:54:28.528Z,88.73
2019-03-05T17:56:59.392Z,88.87
2019-03-05T17:59:30.848Z,87.82
2019-03-05T18:02:01.668Z,86.38
2019-03-05T18:04:33.024Z,86.07
2019-03-05T18:07:04.123Z,86.75
2019-03-05T18:09:35.058Z,87.59
2019-03-05T18:12:06.104Z,86.92
2019-03-05T18:14:37.209Z,86.60
2019-03-05T18:17:08.196Z,84.92
2019-03-05T18:19:39.130Z,84.96
2019-03-05T18:22:09.936Z,85.61
2019-03-05T18:24:40.853Z,85.63
2019-03-05T18:27:12.409Z,87.11
2019-03-05T18:29:43.713Z,86.53
2019-03-05T18:32:15.405Z,87.57
2019-03-05T18:34:46.246Z,88.63
2019-03-05T18:37:17.463Z,89.10
2019-03-05T18:39:48.746Z,90.08
2019-03-05T18:42:19.890Z,90.17
2019-03-05T18:44:51.025Z,90.67
2019-03-05T18:47:22.442Z,90.65
2019-03-05T18:49:53.676Z,90.67
2019-03-05T18:52:24.777Z,91.03
2019-03-05T18:54:55.881Z,91.28
2019-03-05T18:57:28.954Z,91.29
2019-03-05T19:00:01.997Z,91.45
2019-03-05T19:02:34.417Z,91.22
2019-03-05T19:05:05.946Z,91.14
2019-03-05T19:07:37.166Z,91.28
2019-03-05T19:10:11.206Z,91.04
2019-03-05T19:12:42.634Z,91.09
2019-03-05T19:15:15.876Z,91.18
2019-03-05T19:17:47.064Z,91.35
2019-03-05T19:20:19.876Z,91.38
2019-03-05T19:22:51.093Z,91.89
2019-03-05T19:25:23.827Z,91.79
2019-03-05T19:27:54.568Z,91.83
2019-03-05T19:30:30.898Z,91.65
2019-03-05T19:33:02.150Z,94.01
2019-03-05T19:35:33.073Z,94.01
2019-03-05T19:38:04.225Z,94.65
2019-03-05T19:40:36.204Z,95.13
2019-03-05T19:43:07.280Z,95.04
2019-03-05T19:45:38.593Z,94.90
2019-03-05T19:48:09.412Z,95.72
2019-03-05T19:50:40.305Z,95.76
2019-03-05T19:53:12.096Z,94.45
2019-03-05T19:55:43.083Z,95.06
2019-03-05T19:58:14.601Z,94.15
2019-03-05T20:00:53.561Z,93.70
2019-03-05T20:03:24.408Z,93.76
2019-03-05T20:05:55.335Z,93.54
2019-03-05T20:08:26.840Z,92.79
2019-03-05T20:10:58.115Z,92.62
2019-03-05T20:13:30.686Z,92.47
2019-03-05T20:16:01.751Z,92.27
2019-03-05T20:18:32.569Z,91.97
2019-03-05T20:21:03.321Z,91.72
2019-03-05T20:23:35.072Z,92.51
2019-03-05T20:26:07.652Z,92.70
2019-03-05T20:28:38.466Z,92.72
2019-03-05T20:31:09.544Z,93.15
2019-03-05T20:33:41.067Z,92.94
2019-03-05T20:36:12.364Z,92.72
2019-03-05T20:38:45.100Z,92.70
2019-03-05T20:41:15.956Z,92.59
2019-03-05T20:43:46.929Z,92.23
2019-03-05T20:46:24.087Z,92.18
2019-03-05T20:48:55.324Z,91.47
2019-03-05T20:51:26.547Z,91.53
2019-03-05T20:53:58.378Z,90.84
2019-03-05T20:56:30.357Z,90.89
2019-03-05T20:59:01.165Z,91.71
2019-03-05T21:01:32.831Z,91.53
2019-03-05T21:04:04.001Z,91.66
2019-03-05T21:06:36.102Z,91.02
2019-03-05T21:09:18.112Z,91.40
2019-03-05T21:11:49.324Z,90.86
2019-03-05T21:14:20.886Z,90.67
2019-03-05T21:16:52.345Z,90.44
2019-03-05T21:19:23.252Z,90.55
2019-03-05T21:21:54.167Z,90.71
2019-03-05T21:24:26.673Z,90.54
2019-03-05T21:26:57.730Z,90.84
2019-03-05T21:29:28.532Z,90.65
2019-03-05T21:31:59.915Z,89.75
2019-03-05T21:34:30.671Z,89.60
2019-03-05T21:37:01.722Z,89.52
2019-03-05T21:39:32.683Z,89.69
2019-03-05T21:42:03.721Z,89.19
2019-03-05T21:44:34.537Z,89.50
2019-03-05T21:47:05.688Z,89.49
2019-03-05T21:49:36.743Z,89.01
2019-03-05T21:52:08.094Z,89.34
2019-03-05T21:54:39.464Z,90.01
2019-03-05T21:57:10.517Z,89.69
2019-03-05T21:59:41.786Z,89.49
2019-03-05T22:02:12.696Z,89.34
2019-03-05T22:04:43.764Z,89.52
2019-03-05T22:07:14.799Z,89.42
2019-03-05T22:09:45.579Z,89.34
2019-03-05T22:12:16.784Z,89.48
2019-03-05T22:14:47.993Z,89.64
2019-03-05T22:17:18.904Z,89.75
2019-03-05T22:19:49.822Z,90.50
2019-03-05T22:22:20.647Z,90.69
2019-03-05T22:24:51.468Z,90.70
2019-03-05T22:27:23.275Z,90.67
2019-03-05T22:29:54.249Z,90.39
2019-03-05T22:32:25.079Z,90.22
2019-03-05T22:34:55.826Z,90.58
2019-03-05T22:37:26.642Z,90.83
2019-03-05T22:39:58.129Z,91.39
2019-03-05T22:42:29.753Z,90.82
2019-03-05T22:45:00.707Z,90.92
2019-03-05T22:47:32.342Z,90.39
2019-03-05T22:50:03.581Z,90.76
2019-03-05T22:52:34.699Z,90.13
2019-03-05T22:55:05.749Z,90.40
2019-03-05T22:57:36.721Z,90.02
2019-03-05T23:00:11.500Z,90.40
2019-03-05T23:02:44.101Z,90.51
2019-03-05T23:05:15.996Z,90.97
2019-03-05T23:07:46.905Z,90.69
2019-03-05T23:10:18.589Z,91.18
2019-03-05T23:12:49.591Z,91.24
2019-03-05T23:15:20.712Z,91.22
2019-03-05T23:17:52.122Z,90.49
2019-03-05T23:20:22.924Z,90.57
2019-03-05T23:22:54.144Z,90.70
2019-03-05T23:25:24.951Z,90.89
2019-03-05T23:27:55.845Z,91.07
2019-03-05T23:30:26.721Z,92.08
2019-03-05T23:32:57.675Z,93.05
2019-03-05T23:35:28.970Z,93.10
2019-03-05T23:38:00.258Z,93.32
2019-03-05T23:40:32.285Z,93.16
2019-03-05T23:43:03.328Z,92.91
2019-03-05T23:45:34.605Z,92.99
2019-03-05T23:48:05.439Z,93.55
2019-03-05T23:50:36.328Z,94.14
2019-03-05T23:53:07.385Z,94.01
2019-03-05T23:55:38.430Z,93.03
2019-03-05T23:58:09.874Z,93.24
